createdAt,value
2019-03-05T00:02:13.308Z,1.00
2019-03-05T00:04:46.474Z,0.88
2019-03-05T00:07:17.008Z,0.70
2019-03-05T00:09:48.614Z,0.60
2019-03-05T00:12:23.322Z,1.10
2019-03-05T00:15:01.671Z,0.98
2019-03-05T00:17:37.483Z,0.98
2019-03-05T00:20:13.309Z,0.90
2019-03-05T00:22:44.303Z,1.60
2019-03-05T00:25:17.668Z,0.70
2019-03-05T00:27:56.495Z,1.12
2019-03-05T00:31:01.896Z,1.25
2019-03-05T00:33:56.184Z,0.88
2019-03-05T00:36:50.883Z,1.45
2019-03-05T00:39:56.740Z,1.32
2019-03-05T00:43:08.302Z,1.20
2019-03-05T00:46:04.092Z,0.80
2019-03-05T00:49:32.119Z,1.05
2019-03-05T00:53:06.430Z,0.90
2019-03-05T00:56:20.286Z,1.50
2019-03-05T00:59:18.706Z,1.15
2019-03-05T01:02:01.363Z,1.50
2019-03-05T01:04:56.979Z,1.67
2019-03-05T01:07:30.503Z,0.80
2019-03-05T01:10:01.905Z,1.80
2019-03-05T01:12:32.947Z,0.68
2019-03-05T01:15:03.262Z,0.90
2019-03-05T01:17:33.399Z,0.70
2019-03-05T01:20:03.759Z,1.10
2019-03-05T01:22:33.983Z,1.15
2019-03-05T01:25:06.473Z,1.15
2019-03-05T01:27:36.653Z,0.88
2019-03-05T01:30:07.863Z,0.82
2019-03-05T01:32:44.267Z,0.50
2019-03-05T01:35:23.491Z,0.85
2019-03-05T01:37:53.703Z,1.02
2019-03-05T01:40:45.667Z,0.65
2019-03-05T01:43:16.061Z,1.05
2019-03-05T01:45:46.213Z,0.95
2019-03-05T01:48:16.329Z,0.90
2019-03-05T01:50:46.603Z,0.60
2019-03-05T01:53:17.468Z,0.95
2019-03-05T01:55:47.627Z,0.85
2019-03-05T01:58:17.751Z,0.90
2019-03-05T02:00:47.905Z,0.70
2019-03-05T02:03:18.052Z,1.15
2019-03-05T02:05:48.588Z,0.93
2019-03-05T02:08:21.188Z,0.70
2019-03-05T02:10:51.362Z,0.98
2019-03-05T02:13:21.741Z,0.80
2019-03-05T02:15:53.989Z,0.70
2019-03-05T02:18:26.570Z,1.37
2019-03-05T02:20:56.774Z,0.82
2019-03-05T02:24:07.208Z,0.80
2019-03-05T02:27:36.333Z,1.00
2019-03-05T02:30:25.238Z,1.00
2019-03-05T02:33:27.808Z,0.70
2019-03-05T02:36:47.891Z,0.88
2019-03-05T02:39:46.218Z,1.00
2019-03-05T02:42:41.636Z,1.10
2019-03-05T02:46:11.095Z,1.20
2019-03-05T02:49:30.991Z,0.85
2019-03-05T02:52:44.591Z,1.20
2019-03-05T02:55:50.424Z,1.05
2019-03-05T02:58:18.922Z,1.15
2019-03-05T03:01:12.590Z,0.65
2019-03-05T03:03:46.428Z,0.78
2019-03-05T03:06:23.510Z,1.00
2019-03-05T03:09:16.032Z,0.85
2019-03-05T03:11:46.233Z,0.72
2019-03-05T03:14:16.381Z,0.85
2019-03-05T03:16:48.160Z,1.00
2019-03-05T03:19:19.795Z,0.47
2019-03-05T03:21:50.100Z,1.27
2019-03-05T03:24:20.355Z,0.93
2019-03-05T03:26:50.514Z,0.70
2019-03-05T03:29:20.748Z,0.85
2019-03-05T03:31:50.888Z,1.37
2019-03-05T03:34:21.024Z,0.70
2019-03-05T03:36:51.227Z,0.53
2019-03-05T03:39:21.381Z,0.65
2019-03-05T03:41:53.854Z,0.90
2019-03-05T03:44:24.048Z,0.78
2019-03-05T03:46:54.258Z,0.93
2019-03-05T03:49:26.030Z,0.70
2019-03-05T03:51:56.499Z,0.55
2019-03-05T03:54:27.085Z,1.90
2019-03-05T03:56:57.234Z,1.20
2019-03-05T03:59:27.468Z,1.00
2019-03-05T04:01:59.609Z,1.07
2019-03-05T04:04:29.798Z,0.90
2019-03-05T04:06:59.981Z,1.12
2019-03-05T04:09:32.158Z,1.30
2019-03-05T04:12:04.521Z,0.60
2019-03-05T04:14:34.667Z,0.70
2019-03-05T04:17:08.351Z,2.10
2019-03-05T04:19:37.085Z,1.02
2019-03-05T04:22:09.422Z,1.20
2019-03-05T04:24:39.558Z,0.93
2019-03-05T04:27:09.764Z,1.00
2019-03-05T04:29:39.889Z,0.90
2019-03-05T04:32:10.176Z,1.82
2019-03-05T04:34:41.883Z,0.62
2019-03-05T04:37:12.179Z,1.00
2019-03-05T04:39:42.306Z,1.55
2019-03-05T04:42:12.426Z,1.15
2019-03-05T04:44:47.864Z,1.20
2019-03-05T04:47:18.381Z,0.95
2019-03-05T04:50:10.519Z,0.98
2019-03-05T04:52:40.792Z,0.90
2019-03-05T04:55:10.934Z,1.50
2019-03-05T04:57:42.400Z,1.02
2019-03-05T05:00:14.900Z,1.52
2019-03-05T05:02:46.291Z,1.57
2019-03-05T05:05:17.601Z,1.00
2019-03-05T05:07:49.135Z,1.30
2019-03-05T05:10:19.256Z,1.20
2019-03-05T05:12:49.429Z,1.17
2019-03-05T05:15:30.792Z,1.15
2019-03-05T05:18:00.938Z,0.90
2019-03-05T05:20:31.039Z,1.17
2019-03-05T05:23:01.129Z,0.93
2019-03-05T05:25:36.271Z,1.02
2019-03-05T05:28:08.651Z,1.07
2019-03-05T05:30:40.937Z,1.15
2019-03-05T05:33:15.041Z,1.20
2019-03-05T05:35:45.192Z,1.47
2019-03-05T05:38:15.367Z,1.30
2019-03-05T05:40:46.547Z,0.93
2019-03-05T05:43:29.431Z,0.95
2019-03-05T05:45:59.561Z,1.20
2019-03-05T05:49:03.101Z,1.45
2019-03-05T05:51:33.748Z,0.85
2019-03-05T05:54:04.147Z,1.30
2019-03-05T05:56:36.103Z,0.60
2019-03-05T05:59:06.242Z,1.20
2019-03-05T06:01:36.452Z,0.98
2019-03-05T06:04:06.591Z,1.10
2019-03-05T06:06:36.749Z,0.80
2019-03-05T06:09:08.055Z,0.90
2019-03-05T06:11:38.241Z,0.93
2019-03-05T06:14:08.641Z,1.05
2019-03-05T06:16:38.832Z,1.15
2019-03-05T06:19:08.987Z,0.95
2019-03-05T06:21:39.284Z,1.25
2019-03-05T06:24:09.485Z,0.88
2019-03-05T06:26:41.338Z,0.82
2019-03-05T06:29:11.535Z,0.65
2019-03-05T06:31:41.716Z,1.05
2019-03-05T06:34:11.926Z,1.00
2019-03-05T06:36:53.331Z,0.78
2019-03-05T06:39:23.496Z,0.90
2019-03-05T06:41:54.626Z,1.00
2019-03-05T06:44:28.313Z,0.60
2019-03-05T06:46:58.532Z,1.10
2019-03-05T06:49:29.565Z,0.50
2019-03-05T06:51:59.739Z,0.70
2019-03-05T06:54:29.919Z,0.68
2019-03-05T06:57:00.087Z,0.95
2019-03-05T06:59:30.327Z,1.37
2019-03-05T07:02:00.520Z,0.57
2019-03-05T07:04:30.735Z,0.95
2019-03-05T07:07:00.894Z,0.68
2019-03-05T07:09:55.859Z,0.60
2019-03-05T07:12:48.435Z,1.60
2019-03-05T07:15:51.328Z,1.15
2019-03-05T07:18:26.559Z,0.50
2019-03-05T07:21:52.517Z,0.50
2019-03-05T07:24:52.353Z,0.70
2019-03-05T07:27:33.356Z,1.50
2019-03-05T07:30:23.471Z,0.80
2019-03-05T07:32:54.235Z,0.80
2019-03-05T07:35:26.484Z,0.90
2019-03-05T07:37:56.652Z,0.93
2019-03-05T07:40:26.912Z,0.80
2019-03-05T07:42:57.116Z,0.85
2019-03-05T07:45:27.439Z,0.90
2019-03-05T07:47:58.696Z,0.70
2019-03-05T07:50:28.846Z,0.35
2019-03-05T07:52:58.997Z,1.10
2019-03-05T07:55:29.187Z,0.80
2019-03-05T07:57:59.384Z,0.95
2019-03-05T08:00:29.905Z,0.75
2019-03-05T08:03:01.061Z,0.50
2019-03-05T08:05:31.288Z,0.68
2019-03-05T08:08:39.370Z,0.60
2019-03-05T08:11:09.529Z,1.00
2019-03-05T08:14:15.951Z,0.65
2019-03-05T08:16:46.119Z,0.57
2019-03-05T08:19:16.578Z,0.72
2019-03-05T08:21:49.580Z,0.53
2019-03-05T08:24:19.717Z,0.35
2019-03-05T08:26:49.926Z,0.72
2019-03-05T08:29:20.162Z,0.68
2019-03-05T08:31:55.842Z,0.70
2019-03-05T08:34:35.391Z,0.98
2019-03-05T08:37:06.357Z,0.30
2019-03-05T08:39:38.652Z,0.47
2019-03-05T08:42:26.549Z,0.40
2019-03-05T08:45:02.191Z,0.50
2019-03-05T08:47:35.943Z,0.40
2019-03-05T08:50:13.561Z,0.65
2019-03-05T08:52:46.392Z,0.78
2019-03-05T08:55:19.193Z,0.40
2019-03-05T08:57:52.549Z,0.55
2019-03-05T09:00:26.989Z,0.40
2019-03-05T09:03:00.656Z,0.50
2019-03-05T09:05:31.607Z,0.60
2019-03-05T09:08:05.739Z,0.50
2019-03-05T09:10:37.872Z,0.40
2019-03-05T09:13:13.242Z,0.53
2019-03-05T09:15:43.489Z,0.60
2019-03-05T09:18:14.474Z,0.70
2019-03-05T09:20:49.696Z,0.88
2019-03-05T09:23:21.262Z,0.72
2019-03-05T09:25:51.583Z,0.50
2019-03-05T09:28:23.603Z,0.57
2019-03-05T09:31:15.430Z,0.68
2019-03-05T09:33:45.611Z,0.70
2019-03-05T09:36:16.130Z,0.60
2019-03-05T09:38:46.620Z,0.60
2019-03-05T09:41:17.368Z,0.70
2019-03-05T09:43:48.698Z,0.30
2019-03-05T09:46:18.991Z,0.40
2019-03-05T09:48:49.193Z,0.68
2019-03-05T09:51:19.383Z,0.75
2019-03-05T09:53:49.603Z,0.57
2019-03-05T09:56:20.540Z,0.70
2019-03-05T09:58:51.156Z,1.00
2019-03-05T10:01:21.441Z,0.70
2019-03-05T10:03:51.967Z,0.78
2019-03-05T10:06:22.202Z,0.80
2019-03-05T10:08:52.322Z,0.70
2019-03-05T10:11:22.555Z,0.50
2019-03-05T10:13:52.682Z,0.85
2019-03-05T10:16:22.908Z,0.95
2019-03-05T10:18:53.091Z,0.30
2019-03-05T10:21:23.259Z,0.88
2019-03-05T10:23:53.449Z,0.40
2019-03-05T10:26:24.688Z,0.72
2019-03-05T10:28:55.567Z,0.95
2019-03-05T10:31:25.808Z,0.50
2019-03-05T10:33:55.998Z,1.07
2019-03-05T10:36:26.139Z,2.65
2019-03-05T10:38:57.625Z,0.98
2019-03-05T10:41:28.769Z,0.72
2019-03-05T10:43:59.865Z,0.55
2019-03-05T10:46:32.081Z,0.90
2019-03-05T10:49:03.124Z,0.78
2019-03-05T10:51:33.292Z,0.75
2019-03-05T10:54:35.229Z,0.60
2019-03-05T10:57:07.097Z,1.77
2019-03-05T10:59:37.350Z,0.70
2019-03-05T11:02:12.322Z,0.85
2019-03-05T11:04:56.122Z,0.78
2019-03-05T11:07:28.582Z,0.33
2019-03-05T11:10:02.242Z,1.47
2019-03-05T11:12:32.432Z,0.82
2019-03-05T11:15:02.691Z,0.55
2019-03-05T11:17:34.238Z,1.00
2019-03-05T11:20:06.318Z,0.50
2019-03-05T11:22:36.733Z,0.55
2019-03-05T11:25:07.613Z,0.82
2019-03-05T11:27:37.960Z,0.53
2019-03-05T11:30:12.629Z,0.80
2019-03-05T11:32:43.535Z,0.30
2019-03-05T11:35:17.581Z,0.80
2019-03-05T11:37:48.049Z,0.72
2019-03-05T11:40:21.240Z,0.62
2019-03-05T11:42:51.600Z,0.45
2019-03-05T11:45:27.419Z,0.57
2019-03-05T11:47:57.787Z,0.70
2019-03-05T11:50:31.857Z,0.70
2019-03-05T11:53:02.081Z,0.60
2019-03-05T11:55:33.097Z,0.68
2019-03-05T11:58:04.840Z,0.70
2019-03-05T12:00:53.175Z,0.93
2019-03-05T12:03:23.464Z,0.93
2019-03-05T12:05:53.975Z,0.50
2019-03-05T12:08:29.211Z,0.72
2019-03-05T12:10:59.386Z,0.68
2019-03-05T12:13:29.707Z,2.70
2019-03-05T12:16:07.783Z,0.50
2019-03-05T12:18:49.087Z,0.90
2019-03-05T12:21:21.291Z,0.50
2019-03-05T12:23:52.313Z,0.70
2019-03-05T12:26:22.846Z,0.40
2019-03-05T12:28:53.060Z,0.90
2019-03-05T12:31:26.445Z,0.78
2019-03-05T12:33:57.702Z,0.50
2019-03-05T12:36:30.325Z,0.53
2019-03-05T12:39:05.758Z,0.57
2019-03-05T12:41:38.594Z,0.60
2019-03-05T12:44:09.116Z,0.33
2019-03-05T12:46:39.258Z,0.50
2019-03-05T12:49:12.335Z,0.90
2019-03-05T12:51:44.822Z,0.70
2019-03-05T12:54:19.479Z,0.60
2019-03-05T12:56:49.878Z,0.60
2019-03-05T12:59:20.034Z,0.75
2019-03-05T13:01:53.874Z,0.45
2019-03-05T13:04:29.483Z,0.80
2019-03-05T13:07:02.369Z,0.75
2019-03-05T13:09:32.560Z,0.70
2019-03-05T13:17:31.427Z,1.20
2019-03-05T13:20:03.380Z,0.60
2019-03-05T13:22:33.531Z,0.55
2019-03-05T13:25:04.121Z,0.78
2019-03-05T13:27:35.074Z,0.60
2019-03-05T13:30:11.023Z,0.82
2019-03-05T13:35:18.010Z,0.95
2019-03-05T13:37:51.032Z,1.30
2019-03-05T13:40:24.233Z,0.70
2019-03-05T13:42:54.467Z,0.98
2019-03-05T13:45:26.157Z,0.75
2019-03-05T13:48:09.071Z,1.00
2019-03-05T13:51:29.140Z,1.25
2019-03-05T13:54:48.605Z,0.80
2019-03-05T13:58:06.814Z,0.50
2019-03-05T14:00:37.668Z,0.65
2019-03-05T14:03:18.774Z,1.65
2019-03-05T14:06:30.905Z,0.57
2019-03-05T14:09:19.022Z,0.60
2019-03-05T14:11:53.672Z,0.65
2019-03-05T14:14:34.452Z,1.22
2019-03-05T14:17:20.770Z,0.90
2019-03-05T14:19:52.414Z,1.42
2019-03-05T14:22:24.186Z,0.55
2019-03-05T14:25:02.055Z,1.15
2019-03-05T14:27:30.504Z,0.75
2019-03-05T14:30:02.788Z,1.12
2019-03-05T14:32:33.667Z,1.02
2019-03-05T14:35:12.765Z,0.90
2019-03-05T14:37:46.215Z,0.75
2019-03-05T14:40:24.446Z,0.70
2019-03-05T14:42:52.298Z,0.80
2019-03-05T14:45:25.486Z,0.50
2019-03-05T14:47:57.968Z,1.50
2019-03-05T14:50:30.027Z,0.70
2019-03-05T14:53:00.306Z,0.50
2019-03-05T14:55:30.400Z,1.65
2019-03-05T14:58:00.898Z,1.05
2019-03-05T15:00:33.135Z,1.12
2019-03-05T15:03:03.350Z,1.15
2019-03-05T15:05:33.524Z,0.62
2019-03-05T15:08:05.515Z,0.85
2019-03-05T15:10:35.713Z,0.93
2019-03-05T15:13:15.747Z,0.90
2019-03-05T15:15:41.441Z,0.88
2019-03-05T15:18:11.719Z,1.00
2019-03-05T15:20:41.926Z,0.95
2019-03-05T15:23:12.166Z,1.47
2019-03-05T15:25:42.780Z,1.45
2019-03-05T15:28:13.359Z,1.12
2019-03-05T15:30:43.592Z,1.05
2019-03-05T15:33:14.984Z,1.10
2019-03-05T15:35:45.522Z,1.17
2019-03-05T15:38:15.961Z,1.65
2019-03-05T15:40:46.219Z,0.85
2019-03-05T15:43:16.451Z,0.90
2019-03-05T15:45:53.556Z,1.95
2019-03-05T15:48:27.529Z,1.42
2019-03-05T15:50:58.852Z,1.10
2019-03-05T15:53:30.018Z,1.90
2019-03-05T15:56:02.938Z,1.92
2019-03-05T15:58:33.088Z,1.55
2019-03-05T16:01:03.407Z,1.25
2019-03-05T16:03:33.602Z,0.95
2019-03-05T16:06:03.802Z,1.40
2019-03-05T16:08:34.007Z,1.70
2019-03-05T16:11:04.125Z,0.95
2019-03-05T16:13:34.276Z,1.10
2019-03-05T16:16:04.784Z,0.68
2019-03-05T16:18:39.081Z,1.05
2019-03-05T16:21:08.118Z,0.98
2019-03-05T16:23:38.507Z,1.75
2019-03-05T16:26:09.977Z,0.95
2019-03-05T16:28:43.461Z,0.70
2019-03-05T16:31:22.395Z,0.68
2019-03-05T16:34:13.115Z,0.62
2019-03-05T16:37:13.684Z,0.75
2019-03-05T16:40:01.331Z,0.70
2019-03-05T16:42:44.262Z,1.27
2019-03-05T16:45:21.598Z,0.68
2019-03-05T16:48:13.763Z,1.05
2019-03-05T16:51:04.913Z,0.57
2019-03-05T16:54:02.971Z,0.53
2019-03-05T16:56:52.147Z,1.15
2019-03-05T16:59:48.905Z,0.55
2019-03-05T17:02:42.849Z,0.85
2019-03-05T17:05:34.899Z,0.78
2019-03-05T17:08:22.648Z,0.72
2019-03-05T17:11:14.951Z,0.70
2019-03-05T17:13:45.312Z,1.10
2019-03-05T17:16:17.646Z,0.80
2019-03-05T17:18:47.891Z,1.37
2019-03-05T17:21:26.977Z,0.80
2019-03-05T17:23:53.410Z,2.77
2019-03-05T17:26:23.572Z,2.17
2019-03-05T17:28:55.749Z,1.60
2019-03-05T17:31:28.083Z,1.70
2019-03-05T17:33:58.329Z,1.98
2019-03-05T17:36:28.926Z,1.50
2019-03-05T17:39:00.983Z,1.65
2019-03-05T17:41:32.658Z,1.25
2019-03-05T17:44:03.234Z,1.70
2019-03-05T17:46:33.453Z,1.50
2019-03-05T17:49:03.690Z,1.52
2019-03-05T17:51:34.931Z,1.10
2019-03-05T17:54:05.091Z,1.15
2019-03-05T17:56:35.286Z,0.80
2019-03-05T17:59:05.444Z,1.07
2019-03-05T18:01:35.692Z,1.10
2019-03-05T18:04:07.832Z,1.10
2019-03-05T18:06:38.037Z,1.20
2019-03-05T18:09:08.945Z,1.52
2019-03-05T18:11:39.645Z,1.27
2019-03-05T18:14:12.371Z,0.85
2019-03-05T18:16:42.614Z,1.77
2019-03-05T18:19:12.759Z,0.98
2019-03-05T18:21:44.371Z,0.95
2019-03-05T18:24:14.545Z,0.40
2019-03-05T18:26:44.706Z,0.90
2019-03-05T18:29:14.948Z,0.70
2019-03-05T18:31:47.350Z,0.68
2019-03-05T18:34:17.919Z,4.37
2019-03-05T18:36:52.058Z,1.00
2019-03-05T18:39:25.264Z,0.65
2019-03-05T18:41:57.235Z,0.60
2019-03-05T18:44:28.938Z,0.98
2019-03-05T18:47:00.695Z,0.90
2019-03-05T18:49:30.895Z,3.00
2019-03-05T18:54:37.957Z,0.95
2019-03-05T18:57:15.301Z,1.55
2019-03-05T18:59:45.455Z,1.32
2019-03-05T19:02:17.652Z,2.45
2019-03-05T19:04:47.858Z,1.27
2019-03-05T19:07:18.099Z,2.92
2019-03-05T19:09:49.065Z,2.15
2019-03-05T19:12:19.755Z,2.10
2019-03-05T19:14:49.967Z,2.83
2019-03-05T19:17:21.647Z,2.30
2019-03-05T19:19:52.683Z,1.52
2019-03-05T19:22:24.242Z,1.25
2019-03-05T19:24:55.264Z,2.10
2019-03-05T19:27:26.448Z,0.82
2019-03-05T19:29:57.026Z,1.02
2019-03-05T19:32:29.111Z,0.60
2019-03-05T19:34:59.708Z,0.65
2019-03-05T19:37:29.876Z,1.10
2019-03-05T19:40:00.609Z,0.68
2019-03-05T19:42:30.865Z,1.80
2019-03-05T19:45:02.530Z,1.10
2019-03-05T19:47:35.347Z,0.90
2019-03-05T19:50:08.230Z,0.75
2019-03-05T19:52:39.379Z,3.15
2019-03-05T19:55:19.726Z,1.77
2019-03-05T19:57:46.188Z,3.50
2019-03-05T20:00:20.938Z,1.70
2019-03-05T20:02:52.683Z,1.00
2019-03-05T20:05:23.245Z,1.40
2019-03-05T20:07:54.573Z,2.37
2019-03-05T20:10:24.991Z,2.80
2019-03-05T20:12:55.475Z,1.30
2019-03-05T20:15:25.833Z,1.52
2019-03-05T20:17:58.885Z,2.80
2019-03-05T20:20:28.192Z,1.77
2019-03-05T20:22:58.690Z,2.47
2019-03-05T20:25:29.069Z,1.90
2019-03-05T20:27:59.870Z,2.50
2019-03-05T20:30:30.512Z,2.58
2019-03-05T20:33:00.641Z,3.35
2019-03-05T20:35:31.147Z,2.98
2019-03-05T20:38:02.382Z,3.12
2019-03-05T20:40:32.697Z,3.25
2019-03-05T20:43:03.127Z,2.55
2019-03-05T20:45:33.583Z,1.90
2019-03-05T20:48:05.977Z,2.62
2019-03-05T20:50:36.425Z,4.40
2019-03-05T20:53:07.131Z,3.70
2019-03-05T20:55:37.583Z,2.70
2019-03-05T20:58:09.081Z,3.45
2019-03-05T21:00:39.496Z,3.50
2019-03-05T21:03:10.052Z,3.70
2019-03-05T21:05:41.407Z,3.33
2019-03-05T21:08:11.813Z,3.08
2019-03-05T21:10:42.170Z,2.90
2019-03-05T21:13:12.942Z,3.05
2019-03-05T21:15:44.675Z,2.75
2019-03-05T21:18:15.095Z,2.27
2019-03-05T21:20:45.394Z,2.47
2019-03-05T21:23:17.883Z,3.08
2019-03-05T21:25:50.771Z,3.08
2019-03-05T21:28:21.739Z,2.60
2019-03-05T21:30:52.907Z,2.00
2019-03-05T21:33:23.478Z,2.52
2019-03-05T21:35:53.626Z,3.55
2019-03-05T21:38:24.377Z,2.50
2019-03-05T21:40:54.710Z,2.05
2019-03-05T21:43:47.449Z,2.58
2019-03-05T21:46:18.753Z,4.95
2019-03-05T21:48:50.075Z,4.65
2019-03-05T21:51:20.345Z,4.67
2019-03-05T21:53:50.484Z,4.20
2019-03-05T21:56:20.671Z,3.67
2019-03-05T21:58:50.817Z,3.25
2019-03-05T22:01:22.803Z,3.52
2019-03-05T22:03:53.827Z,4.40
2019-03-05T22:06:23.953Z,3.10
2019-03-05T22:08:55.109Z,3.92
2019-03-05T22:11:25.314Z,3.90
2019-03-05T22:13:55.552Z,3.45
2019-03-05T22:16:25.755Z,4.30
2019-03-05T22:18:55.939Z,3.60
2019-03-05T22:21:26.185Z,4.03
2019-03-05T22:23:56.324Z,3.50
2019-03-05T22:26:26.542Z,2.80
2019-03-05T22:28:57.240Z,3.40
2019-03-05T22:31:27.849Z,2.33
2019-03-05T22:33:57.994Z,3.17
2019-03-05T22:36:28.237Z,2.87
2019-03-05T22:38:58.407Z,3.58
2019-03-05T22:41:28.699Z,3.25
2019-03-05T22:44:00.139Z,3.52
2019-03-05T22:46:30.358Z,4.40
2019-03-05T22:49:00.625Z,3.40
2019-03-05T22:51:33.161Z,4.40
2019-03-05T22:54:04.531Z,4.78
2019-03-05T22:56:34.731Z,4.15
2019-03-05T22:59:08.875Z,5.30
2019-03-05T23:01:41.403Z,5.55
2019-03-05T23:04:14.871Z,5.80
2019-03-05T23:06:45.068Z,7.30
2019-03-05T23:09:23.546Z,6.10
2019-03-05T23:11:53.830Z,6.08
2019-03-05T23:14:25.939Z,6.33
2019-03-05T23:16:58.577Z,5.58
2019-03-05T23:19:33.984Z,6.85
2019-03-05T23:22:01.684Z,6.53
2019-03-05T23:24:31.940Z,5.55
2019-03-05T23:27:02.290Z,7.00
2019-03-05T23:29:48.910Z,6.10
2019-03-05T23:32:23.600Z,6.87
2019-03-05T23:34:55.542Z,4.83
2019-03-05T23:37:26.095Z,6.45
2019-03-05T23:39:59.351Z,6.00
2019-03-05T23:42:29.569Z,5.37
2019-03-05T23:45:02.176Z,7.05
2019-03-05T23:47:34.497Z,6.35
2019-03-05T23:50:05.107Z,7.12
2019-03-05T23:52:35.351Z,7.28
2019-03-05T23:55:05.968Z,6.67
2019-03-05T23:57:36.458Z,8.43
